sensor_id;sensor_type;location;lat;lon;timestamp;P1;durP1;ratioP1;P2;durP2;ratioP2
51967;SDS011;75327;42.568;23.176;2024-02-26T00:04:56;9.20;;;4.77;;
51967;SDS011;75327;42.568;23.176;2024-02-26T00:19:59;17.70;;;7.93;;
51967;SDS011;75327;42.568;23.176;2024-02-26T00:35:02;7.53;;;4.10;;
51967;SDS011;75327;42.568;23.176;2024-02-26T00:50:05;6.63;;;3.97;;
51967;SDS011;75327;42.568;23.176;2024-02-26T01:05:08;9.50;;;5.60;;
51967;SDS011;75327;42.568;23.176;2024-02-26T01:20:10;6.00;;;4.23;;
51967;SDS011;75327;42.568;23.176;2024-02-26T01:35:13;6.83;;;4.53;;
51967;SDS011;75327;42.568;23.176;2024-02-26T01:50:15;10.33;;;4.20;;
51967;SDS011;75327;42.568;23.176;2024-02-26T02:05:17;11.30;;;4.00;;
51967;SDS011;75327;42.568;23.176;2024-02-26T02:20:32;6.10;;;4.07;;
51967;SDS011;75327;42.568;23.176;2024-02-26T02:35:35;7.97;;;4.67;;
51967;SDS011;75327;42.568;23.176;2024-02-26T02:50:37;6.10;;;3.27;;
51967;SDS011;75327;42.568;23.176;2024-02-26T03:05:39;7.50;;;4.10;;
51967;SDS011;75327;42.568;23.176;2024-02-26T03:20:42;11.90;;;4.73;;
51967;SDS011;75327;42.568;23.176;2024-02-26T03:35:44;14.33;;;8.10;;
51967;SDS011;75327;42.568;23.176;2024-02-26T03:50:46;10.03;;;5.17;;
51967;SDS011;75327;42.568;23.176;2024-02-26T04:05:48;13.57;;;7.90;;
51967;SDS011;75327;42.568;23.176;2024-02-26T04:20:50;9.03;;;5.20;;
51967;SDS011;75327;42.568;23.176;2024-02-26T04:35:53;4.87;;;3.50;;
51967;SDS011;75327;42.568;23.176;2024-02-26T04:50:55;14.87;;;8.40;;
51967;SDS011;75327;42.568;23.176;2024-02-26T05:05:57;6.80;;;4.90;;
51967;SDS011;75327;42.568;23.176;2024-02-26T05:20:59;18.10;;;9.60;;
51967;SDS011;75327;42.568;23.176;2024-02-26T05:36:01;8.33;;;4.97;;
51967;SDS011;75327;42.568;23.176;2024-02-26T05:51:05;3.73;;;3.17;;
51967;SDS011;75327;42.568;23.176;2024-02-26T06:06:07;6.30;;;3.57;;
51967;SDS011;75327;42.568;23.176;2024-02-26T06:21:10;12.67;;;6.80;;
51967;SDS011;75327;42.568;23.176;2024-02-26T06:36:12;13.07;;;7.70;;
51967;SDS011;75327;42.568;23.176;2024-02-26T06:51:14;12.43;;;6.20;;
51967;SDS011;75327;42.568;23.176;2024-02-26T07:06:17;13.40;;;6.33;;
51967;SDS011;75327;42.568;23.176;2024-02-26T07:21:19;14.47;;;9.30;;
51967;SDS011;75327;42.568;23.176;2024-02-26T07:36:21;11.83;;;6.57;;
51967;SDS011;75327;42.568;23.176;2024-02-26T07:51:24;14.50;;;7.87;;
51967;SDS011;75327;42.568;23.176;2024-02-26T08:06:26;14.33;;;7.30;;
51967;SDS011;75327;42.568;23.176;2024-02-26T08:21:29;14.27;;;8.43;;
51967;SDS011;75327;42.568;23.176;2024-02-26T08:36:31;19.27;;;10.73;;
51967;SDS011;75327;42.568;23.176;2024-02-26T08:51:34;18.23;;;11.10;;
51967;SDS011;75327;42.568;23.176;2024-02-26T09:06:37;17.83;;;10.03;;
51967;SDS011;75327;42.568;23.176;2024-02-26T09:21:43;19.20;;;9.53;;
51967;SDS011;75327;42.568;23.176;2024-02-26T09:36:46;15.32;;;8.77;;
51967;SDS011;75327;42.568;23.176;2024-02-26T09:51:49;11.43;;;8.17;;
51967;SDS011;75327;42.568;23.176;2024-02-26T10:06:52;16.43;;;10.80;;
51967;SDS011;75327;42.568;23.176;2024-02-26T10:21:58;17.87;;;10.37;;
51967;SDS011;75327;42.568;23.176;2024-02-26T10:37:02;17.93;;;11.67;;
51967;SDS011;75327;42.568;23.176;2024-02-26T10:52:06;16.10;;;10.27;;
51967;SDS011;75327;42.568;23.176;2024-02-26T11:07:09;12.23;;;9.07;;
51967;SDS011;75327;42.568;23.176;2024-02-26T11:22:12;16.80;;;9.70;;
51967;SDS011;75327;42.568;23.176;2024-02-26T11:37:25;10.17;;;6.20;;
51967;SDS011;75327;42.568;23.176;2024-02-26T11:52:27;9.70;;;6.60;;
51967;SDS011;75327;42.568;23.176;2024-02-26T12:07:29;14.60;;;7.43;;
51967;SDS011;75327;42.568;23.176;2024-02-26T12:22:31;18.57;;;8.80;;
51967;SDS011;75327;42.568;23.176;2024-02-26T12:37:33;12.30;;;7.90;;
51967;SDS011;75327;42.568;23.176;2024-02-26T12:52:43;17.30;;;7.87;;
51967;SDS011;75327;42.568;23.176;2024-02-26T13:07:46;15.83;;;8.50;;
51967;SDS011;75327;42.568;23.176;2024-02-26T13:22:49;18.53;;;7.90;;
51967;SDS011;75327;42.568;23.176;2024-02-26T13:37:51;26.47;;;12.13;;
51967;SDS011;75327;42.568;23.176;2024-02-26T13:52:53;19.73;;;7.93;;
51967;SDS011;75327;42.568;23.176;2024-02-26T14:07:57;17.77;;;7.47;;
51967;SDS011;75327;42.568;23.176;2024-02-26T14:22:59;14.73;;;6.27;;
51967;SDS011;75327;42.568;23.176;2024-02-26T14:38:02;17.33;;;7.50;;
51967;SDS011;75327;42.568;23.176;2024-02-26T14:53:04;16.40;;;7.37;;
51967;SDS011;75327;42.568;23.176;2024-02-26T15:08:07;19.37;;;7.50;;
51967;SDS011;75327;42.568;23.176;2024-02-26T15:23:16;16.53;;;7.53;;
51967;SDS011;75327;42.568;23.176;2024-02-26T15:38:19;17.37;;;7.73;;
51967;SDS011;75327;42.568;23.176;2024-02-26T15:53:21;17.70;;;10.27;;
51967;SDS011;75327;42.568;23.176;2024-02-26T16:08:23;35.90;;;20.20;;
51967;SDS011;75327;42.568;23.176;2024-02-26T16:23:25;23.60;;;14.00;;
51967;SDS011;75327;42.568;23.176;2024-02-26T16:38:28;20.87;;;12.30;;
51967;SDS011;75327;42.568;23.176;2024-02-26T16:53:30;24.00;;;14.33;;
51967;SDS011;75327;42.568;23.176;2024-02-26T17:08:32;14.63;;;8.03;;
51967;SDS011;75327;42.568;23.176;2024-02-26T17:23:35;29.70;;;12.97;;
51967;SDS011;75327;42.568;23.176;2024-02-26T17:38:37;24.60;;;11.63;;
51967;SDS011;75327;42.568;23.176;2024-02-26T17:53:40;24.00;;;12.27;;
51967;SDS011;75327;42.568;23.176;2024-02-26T18:08:42;28.83;;;15.57;;
51967;SDS011;75327;42.568;23.176;2024-02-26T18:23:44;26.40;;;14.13;;
51967;SDS011;75327;42.568;23.176;2024-02-26T18:38:46;18.13;;;9.17;;
51967;SDS011;75327;42.568;23.176;2024-02-26T18:53:49;11.10;;;7.13;;
51967;SDS011;75327;42.568;23.176;2024-02-26T19:08:51;19.57;;;9.73;;
51967;SDS011;75327;42.568;23.176;2024-02-26T19:23:53;22.67;;;11.10;;
51967;SDS011;75327;42.568;23.176;2024-02-26T19:38:55;11.87;;;7.77;;
51967;SDS011;75327;42.568;23.176;2024-02-26T19:53:57;22.03;;;11.60;;
51967;SDS011;75327;42.568;23.176;2024-02-26T20:08:59;17.87;;;10.10;;
51967;SDS011;75327;42.568;23.176;2024-02-26T20:24:02;19.67;;;11.10;;
51967;SDS011;75327;42.568;23.176;2024-02-26T20:39:04;20.43;;;9.80;;
51967;SDS011;75327;42.568;23.176;2024-02-26T20:54:07;16.53;;;7.13;;
51967;SDS011;75327;42.568;23.176;2024-02-26T21:09:13;19.33;;;8.77;;
51967;SDS011;75327;42.568;23.176;2024-02-26T21:24:15;16.37;;;9.40;;
51967;SDS011;75327;42.568;23.176;2024-02-26T21:39:18;13.80;;;7.77;;
51967;SDS011;75327;42.568;23.176;2024-02-26T21:54:20;11.07;;;5.50;;
51967;SDS011;75327;42.568;23.176;2024-02-26T22:09:22;12.57;;;5.33;;
51967;SDS011;75327;42.568;23.176;2024-02-26T22:24:24;10.00;;;5.60;;
51967;SDS011;75327;42.568;23.176;2024-02-26T22:39:26;6.37;;;4.43;;
51967;SDS011;75327;42.568;23.176;2024-02-26T22:54:28;15.40;;;8.60;;
51967;SDS011;75327;42.568;23.176;2024-02-26T23:09:32;11.00;;;5.63;;
51967;SDS011;75327;42.568;23.176;2024-02-26T23:24:35;5.73;;;3.70;;
51967;SDS011;75327;42.568;23.176;2024-02-26T23:39:37;11.23;;;5.77;;
51967;SDS011;75327;42.568;23.176;2024-02-26T23:54:39;10.03;;;6.00;;
